sensor_id;sensor_type;location;lat;lon;timestamp;P1;durP1;ratioP1;P2;durP2;ratioP2
18136;SDS011;9194;42.632;23.298;2023-07-31T00:03:43;8.57;;;5.20;;
18136;SDS011;9194;42.632;23.298;2023-07-31T00:08:44;5.00;;;4.55;;
18136;SDS011;9194;42.632;23.298;2023-07-31T00:13:46;5.72;;;5.22;;
18136;SDS011;9194;42.632;23.298;2023-07-31T00:18:47;11.30;;;5.07;;
18136;SDS011;9194;42.632;23.298;2023-07-31T00:23:48;6.47;;;4.93;;
18136;SDS011;9194;42.632;23.298;2023-07-31T00:28:49;10.13;;;5.68;;
18136;SDS011;9194;42.632;23.298;2023-07-31T00:33:50;9.32;;;5.18;;
18136;SDS011;9194;42.632;23.298;2023-07-31T00:38:52;5.45;;;4.75;;
18136;SDS011;9194;42.632;23.298;2023-07-31T00:43:53;5.72;;;4.90;;
18136;SDS011;9194;42.632;23.298;2023-07-31T00:48:54;5.13;;;4.72;;
18136;SDS011;9194;42.632;23.298;2023-07-31T00:53:55;5.03;;;4.57;;
18136;SDS011;9194;42.632;23.298;2023-07-31T00:58:56;7.22;;;5.28;;
18136;SDS011;9194;42.632;23.298;2023-07-31T01:03:58;6.68;;;5.53;;
18136;SDS011;9194;42.632;23.298;2023-07-31T01:09:02;6.30;;;5.70;;
18136;SDS011;9194;42.632;23.298;2023-07-31T01:14:04;8.77;;;7.20;;
18136;SDS011;9194;42.632;23.298;2023-07-31T01:19:06;7.95;;;6.30;;
18136;SDS011;9194;42.632;23.298;2023-07-31T01:24:19;8.18;;;6.65;;
18136;SDS011;9194;42.632;23.298;2023-07-31T01:35:15;22.42;;;16.88;;
18136;SDS011;9194;42.632;23.298;2023-07-31T01:40:16;30.58;;;21.63;;
18136;SDS011;9194;42.632;23.298;2023-07-31T01:45:18;33.45;;;23.33;;
18136;SDS011;9194;42.632;23.298;2023-07-31T01:50:19;32.45;;;22.52;;
18136;SDS011;9194;42.632;23.298;2023-07-31T01:55:20;37.72;;;25.27;;
18136;SDS011;9194;42.632;23.298;2023-07-31T02:00:22;36.63;;;25.70;;
18136;SDS011;9194;42.632;23.298;2023-07-31T02:05:23;38.17;;;26.83;;
18136;SDS011;9194;42.632;23.298;2023-07-31T02:10:24;37.75;;;24.30;;
18136;SDS011;9194;42.632;23.298;2023-07-31T02:15:25;38.80;;;26.45;;
18136;SDS011;9194;42.632;23.298;2023-07-31T02:20:27;40.60;;;26.90;;
18136;SDS011;9194;42.632;23.298;2023-07-31T02:25:28;35.33;;;24.80;;
18136;SDS011;9194;42.632;23.298;2023-07-31T02:30:29;34.78;;;24.77;;
18136;SDS011;9194;42.632;23.298;2023-07-31T02:35:30;35.50;;;25.08;;
18136;SDS011;9194;42.632;23.298;2023-07-31T02:40:32;41.72;;;28.33;;
18136;SDS011;9194;42.632;23.298;2023-07-31T02:45:33;42.20;;;27.52;;
18136;SDS011;9194;42.632;23.298;2023-07-31T02:50:34;41.03;;;26.95;;
18136;SDS011;9194;42.632;23.298;2023-07-31T02:55:36;33.83;;;24.50;;
18136;SDS011;9194;42.632;23.298;2023-07-31T03:00:41;38.75;;;26.27;;
18136;SDS011;9194;42.632;23.298;2023-07-31T03:05:46;30.58;;;22.25;;
18136;SDS011;9194;42.632;23.298;2023-07-31T03:10:47;32.65;;;22.35;;
18136;SDS011;9194;42.632;23.298;2023-07-31T03:15:48;27.88;;;20.20;;
18136;SDS011;9194;42.632;23.298;2023-07-31T03:20:49;33.58;;;23.17;;
18136;SDS011;9194;42.632;23.298;2023-07-31T03:31:02;39.05;;;25.17;;
18136;SDS011;9194;42.632;23.298;2023-07-31T03:36:04;39.25;;;23.63;;
18136;SDS011;9194;42.632;23.298;2023-07-31T03:41:06;38.67;;;26.00;;
18136;SDS011;9194;42.632;23.298;2023-07-31T03:46:08;38.90;;;23.92;;
18136;SDS011;9194;42.632;23.298;2023-07-31T03:51:09;37.40;;;24.13;;
18136;SDS011;9194;42.632;23.298;2023-07-31T03:56:10;36.90;;;23.67;;
18136;SDS011;9194;42.632;23.298;2023-07-31T04:01:12;31.80;;;22.00;;
18136;SDS011;9194;42.632;23.298;2023-07-31T04:06:13;34.25;;;22.17;;
18136;SDS011;9194;42.632;23.298;2023-07-31T04:11:14;39.45;;;24.40;;
18136;SDS011;9194;42.632;23.298;2023-07-31T04:16:15;36.75;;;22.85;;
18136;SDS011;9194;42.632;23.298;2023-07-31T04:21:16;39.13;;;24.50;;
18136;SDS011;9194;42.632;23.298;2023-07-31T04:26:18;33.03;;;21.48;;
18136;SDS011;9194;42.632;23.298;2023-07-31T04:31:19;30.00;;;20.73;;
18136;SDS011;9194;42.632;23.298;2023-07-31T04:36:21;26.67;;;19.50;;
18136;SDS011;9194;42.632;23.298;2023-07-31T04:41:22;21.05;;;16.23;;
18136;SDS011;9194;42.632;23.298;2023-07-31T04:46:23;23.75;;;16.33;;
18136;SDS011;9194;42.632;23.298;2023-07-31T04:51:24;21.83;;;15.88;;
18136;SDS011;9194;42.632;23.298;2023-07-31T04:56:26;20.75;;;15.70;;
18136;SDS011;9194;42.632;23.298;2023-07-31T05:01:27;23.35;;;14.90;;
18136;SDS011;9194;42.632;23.298;2023-07-31T05:06:28;19.25;;;12.48;;
18136;SDS011;9194;42.632;23.298;2023-07-31T05:11:29;16.77;;;12.90;;
18136;SDS011;9194;42.632;23.298;2023-07-31T05:16:31;11.85;;;10.23;;
18136;SDS011;9194;42.632;23.298;2023-07-31T05:21:32;16.38;;;11.82;;
18136;SDS011;9194;42.632;23.298;2023-07-31T05:26:33;28.13;;;14.95;;
18136;SDS011;9194;42.632;23.298;2023-07-31T05:31:34;18.55;;;12.48;;
18136;SDS011;9194;42.632;23.298;2023-07-31T05:36:36;16.08;;;12.20;;
18136;SDS011;9194;42.632;23.298;2023-07-31T05:41:37;13.50;;;10.93;;
18136;SDS011;9194;42.632;23.298;2023-07-31T05:46:38;12.68;;;9.50;;
18136;SDS011;9194;42.632;23.298;2023-07-31T05:51:39;12.85;;;8.55;;
18136;SDS011;9194;42.632;23.298;2023-07-31T05:56:41;8.45;;;7.55;;
18136;SDS011;9194;42.632;23.298;2023-07-31T06:01:42;10.52;;;7.00;;
18136;SDS011;9194;42.632;23.298;2023-07-31T06:06:43;9.82;;;7.03;;
18136;SDS011;9194;42.632;23.298;2023-07-31T06:11:44;7.78;;;6.57;;
18136;SDS011;9194;42.632;23.298;2023-07-31T06:16:45;7.15;;;6.05;;
18136;SDS011;9194;42.632;23.298;2023-07-31T06:21:47;8.02;;;5.70;;
18136;SDS011;9194;42.632;23.298;2023-07-31T06:26:49;7.57;;;5.38;;
18136;SDS011;9194;42.632;23.298;2023-07-31T06:31:51;7.38;;;4.57;;
18136;SDS011;9194;42.632;23.298;2023-07-31T06:36:53;4.82;;;4.43;;
18136;SDS011;9194;42.632;23.298;2023-07-31T06:41:54;4.38;;;3.97;;
18136;SDS011;9194;42.632;23.298;2023-07-31T06:46:55;4.22;;;3.80;;
18136;SDS011;9194;42.632;23.298;2023-07-31T06:51:56;4.00;;;3.70;;
18136;SDS011;9194;42.632;23.298;2023-07-31T06:56:57;5.53;;;3.53;;
18136;SDS011;9194;42.632;23.298;2023-07-31T07:01:58;9.82;;;4.22;;
18136;SDS011;9194;42.632;23.298;2023-07-31T07:07:00;3.67;;;3.38;;
18136;SDS011;9194;42.632;23.298;2023-07-31T07:12:01;4.35;;;3.42;;
18136;SDS011;9194;42.632;23.298;2023-07-31T07:17:03;3.53;;;3.22;;
18136;SDS011;9194;42.632;23.298;2023-07-31T07:22:04;5.07;;;3.00;;
18136;SDS011;9194;42.632;23.298;2023-07-31T07:27:06;3.45;;;3.10;;
18136;SDS011;9194;42.632;23.298;2023-07-31T07:32:07;2.90;;;2.70;;
18136;SDS011;9194;42.632;23.298;2023-07-31T07:37:09;3.97;;;2.47;;
18136;SDS011;9194;42.632;23.298;2023-07-31T07:42:10;2.85;;;2.60;;
18136;SDS011;9194;42.632;23.298;2023-07-31T07:47:12;2.38;;;2.25;;
18136;SDS011;9194;42.632;23.298;2023-07-31T07:52:13;2.83;;;2.63;;
18136;SDS011;9194;42.632;23.298;2023-07-31T07:57:14;3.00;;;2.80;;
18136;SDS011;9194;42.632;23.298;2023-07-31T08:02:16;3.30;;;3.00;;
18136;SDS011;9194;42.632;23.298;2023-07-31T08:07:17;2.60;;;2.40;;
18136;SDS011;9194;42.632;23.298;2023-07-31T08:12:18;2.55;;;2.35;;
18136;SDS011;9194;42.632;23.298;2023-07-31T08:17:19;2.30;;;2.20;;
18136;SDS011;9194;42.632;23.298;2023-07-31T08:22:21;6.57;;;2.40;;
18136;SDS011;9194;42.632;23.298;2023-07-31T08:27:22;6.63;;;2.63;;
18136;SDS011;9194;42.632;23.298;2023-07-31T08:32:24;3.03;;;2.80;;
18136;SDS011;9194;42.632;23.298;2023-07-31T08:37:25;3.30;;;3.00;;
18136;SDS011;9194;42.632;23.298;2023-07-31T08:42:26;3.17;;;2.50;;
18136;SDS011;9194;42.632;23.298;2023-07-31T08:47:27;3.00;;;2.70;;
18136;SDS011;9194;42.632;23.298;2023-07-31T08:52:29;3.58;;;2.35;;
18136;SDS011;9194;42.632;23.298;2023-07-31T08:57:30;3.95;;;2.53;;
18136;SDS011;9194;42.632;23.298;2023-07-31T09:08:09;4.88;;;2.70;;
18136;SDS011;9194;42.632;23.298;2023-07-31T09:13:12;3.15;;;2.22;;
18136;SDS011;9194;42.632;23.298;2023-07-31T09:18:14;7.05;;;2.60;;
18136;SDS011;9194;42.632;23.298;2023-07-31T09:23:19;2.50;;;2.30;;
18136;SDS011;9194;42.632;23.298;2023-07-31T09:28:22;2.92;;;2.50;;
18136;SDS011;9194;42.632;23.298;2023-07-31T09:33:32;8.73;;;2.60;;
18136;SDS011;9194;42.632;23.298;2023-07-31T09:38:34;4.40;;;3.63;;
18136;SDS011;9194;42.632;23.298;2023-07-31T09:43:35;3.30;;;2.60;;
18136;SDS011;9194;42.632;23.298;2023-07-31T09:48:38;5.75;;;2.70;;
18136;SDS011;9194;42.632;23.298;2023-07-31T09:53:40;2.88;;;2.67;;
18136;SDS011;9194;42.632;23.298;2023-07-31T09:58:41;2.58;;;2.38;;
18136;SDS011;9194;42.632;23.298;2023-07-31T10:03:42;3.20;;;2.85;;
18136;SDS011;9194;42.632;23.298;2023-07-31T10:08:46;15.00;;;7.90;;
18136;SDS011;9194;42.632;23.298;2023-07-31T10:13:50;5.78;;;4.28;;
18136;SDS011;9194;42.632;23.298;2023-07-31T10:18:52;4.13;;;3.10;;
18136;SDS011;9194;42.632;23.298;2023-07-31T10:23:55;4.05;;;2.28;;
18136;SDS011;9194;42.632;23.298;2023-07-31T10:28:57;4.38;;;2.80;;
18136;SDS011;9194;42.632;23.298;2023-07-31T10:33:59;2.50;;;2.30;;
18136;SDS011;9194;42.632;23.298;2023-07-31T10:39:03;3.65;;;2.08;;
18136;SDS011;9194;42.632;23.298;2023-07-31T10:44:05;2.65;;;1.77;;
18136;SDS011;9194;42.632;23.298;2023-07-31T10:49:08;2.60;;;2.40;;
18136;SDS011;9194;42.632;23.298;2023-07-31T10:54:12;2.83;;;2.10;;
18136;SDS011;9194;42.632;23.298;2023-07-31T10:59:15;2.50;;;2.30;;
18136;SDS011;9194;42.632;23.298;2023-07-31T11:04:22;2.38;;;2.22;;
18136;SDS011;9194;42.632;23.298;2023-07-31T11:09:28;9.68;;;4.82;;
18136;SDS011;9194;42.632;23.298;2023-07-31T11:14:31;3.42;;;3.13;;
18136;SDS011;9194;42.632;23.298;2023-07-31T11:19:32;1.60;;;1.52;;
18136;SDS011;9194;42.632;23.298;2023-07-31T11:24:34;18.35;;;8.77;;
18136;SDS011;9194;42.632;23.298;2023-07-31T11:29:35;6.88;;;5.03;;
18136;SDS011;9194;42.632;23.298;2023-07-31T11:34:50;16.40;;;8.48;;
18136;SDS011;9194;42.632;23.298;2023-07-31T11:40:01;2.53;;;2.42;;
18136;SDS011;9194;42.632;23.298;2023-07-31T11:45:07;11.68;;;1.90;;
18136;SDS011;9194;42.632;23.298;2023-07-31T11:50:10;13.00;;;7.10;;
18136;SDS011;9194;42.632;23.298;2023-07-31T11:55:13;5.57;;;4.38;;
18136;SDS011;9194;42.632;23.298;2023-07-31T12:00:18;2.85;;;2.65;;
18136;SDS011;9194;42.632;23.298;2023-07-31T12:05:20;2.90;;;2.33;;
18136;SDS011;9194;42.632;23.298;2023-07-31T12:15:37;3.00;;;2.80;;
18136;SDS011;9194;42.632;23.298;2023-07-31T12:20:47;3.72;;;2.70;;
18136;SDS011;9194;42.632;23.298;2023-07-31T12:25:54;3.83;;;3.53;;
18136;SDS011;9194;42.632;23.298;2023-07-31T12:31:14;3.58;;;3.28;;
18136;SDS011;9194;42.632;23.298;2023-07-31T12:36:20;4.40;;;4.10;;
18136;SDS011;9194;42.632;23.298;2023-07-31T12:41:23;5.10;;;4.70;;
18136;SDS011;9194;42.632;23.298;2023-07-31T12:46:24;5.40;;;4.80;;
18136;SDS011;9194;42.632;23.298;2023-07-31T12:51:26;5.30;;;4.80;;
18136;SDS011;9194;42.632;23.298;2023-07-31T12:56:27;5.13;;;4.43;;
18136;SDS011;9194;42.632;23.298;2023-07-31T13:01:28;5.25;;;4.75;;
18136;SDS011;9194;42.632;23.298;2023-07-31T13:06:29;5.72;;;5.03;;
18136;SDS011;9194;42.632;23.298;2023-07-31T13:11:30;6.63;;;5.75;;
18136;SDS011;9194;42.632;23.298;2023-07-31T13:16:32;5.75;;;5.25;;
18136;SDS011;9194;42.632;23.298;2023-07-31T13:21:33;6.15;;;4.68;;
18136;SDS011;9194;42.632;23.298;2023-07-31T13:26:36;5.43;;;4.93;;
18136;SDS011;9194;42.632;23.298;2023-07-31T13:31:38;5.20;;;4.80;;
18136;SDS011;9194;42.632;23.298;2023-07-31T13:36:39;9.65;;;4.43;;
18136;SDS011;9194;42.632;23.298;2023-07-31T13:41:40;6.15;;;4.25;;
18136;SDS011;9194;42.632;23.298;2023-07-31T13:46:41;4.10;;;3.78;;
18136;SDS011;9194;42.632;23.298;2023-07-31T13:51:42;3.20;;;3.00;;
18136;SDS011;9194;42.632;23.298;2023-07-31T13:56:44;5.20;;;3.38;;
18136;SDS011;9194;42.632;23.298;2023-07-31T14:01:46;3.95;;;3.42;;
18136;SDS011;9194;42.632;23.298;2023-07-31T14:06:47;4.55;;;3.53;;
18136;SDS011;9194;42.632;23.298;2023-07-31T14:11:51;4.03;;;3.72;;
18136;SDS011;9194;42.632;23.298;2023-07-31T14:16:52;3.63;;;3.13;;
18136;SDS011;9194;42.632;23.298;2023-07-31T14:21:53;3.65;;;3.35;;
18136;SDS011;9194;42.632;23.298;2023-07-31T14:26:54;6.57;;;3.55;;
18136;SDS011;9194;42.632;23.298;2023-07-31T14:31:55;3.45;;;3.25;;
18136;SDS011;9194;42.632;23.298;2023-07-31T14:36:57;8.80;;;3.75;;
18136;SDS011;9194;42.632;23.298;2023-07-31T14:41:58;5.65;;;3.17;;
18136;SDS011;9194;42.632;23.298;2023-07-31T14:46:59;5.38;;;3.08;;
18136;SDS011;9194;42.632;23.298;2023-07-31T14:52:01;3.70;;;3.40;;
18136;SDS011;9194;42.632;23.298;2023-07-31T14:57:02;6.15;;;3.50;;
18136;SDS011;9194;42.632;23.298;2023-07-31T15:02:03;4.70;;;3.25;;
18136;SDS011;9194;42.632;23.298;2023-07-31T15:07:05;2.92;;;2.72;;
18136;SDS011;9194;42.632;23.298;2023-07-31T15:12:06;5.85;;;3.60;;
18136;SDS011;9194;42.632;23.298;2023-07-31T15:17:08;3.47;;;3.10;;
18136;SDS011;9194;42.632;23.298;2023-07-31T15:22:09;3.40;;;3.10;;
18136;SDS011;9194;42.632;23.298;2023-07-31T15:27:11;2.80;;;2.60;;
18136;SDS011;9194;42.632;23.298;2023-07-31T15:32:12;2.92;;;2.70;;
18136;SDS011;9194;42.632;23.298;2023-07-31T15:37:13;4.10;;;3.03;;
18136;SDS011;9194;42.632;23.298;2023-07-31T15:42:15;2.70;;;2.53;;
18136;SDS011;9194;42.632;23.298;2023-07-31T15:47:16;2.95;;;2.33;;
18136;SDS011;9194;42.632;23.298;2023-07-31T15:52:17;3.90;;;2.45;;
18136;SDS011;9194;42.632;23.298;2023-07-31T15:57:18;3.67;;;2.33;;
18136;SDS011;9194;42.632;23.298;2023-07-31T16:02:19;3.42;;;2.30;;
18136;SDS011;9194;42.632;23.298;2023-07-31T16:07:21;2.35;;;2.22;;
18136;SDS011;9194;42.632;23.298;2023-07-31T16:12:24;2.00;;;1.90;;
18136;SDS011;9194;42.632;23.298;2023-07-31T16:17:25;5.07;;;1.77;;
18136;SDS011;9194;42.632;23.298;2023-07-31T16:22:26;2.55;;;2.08;;
18136;SDS011;9194;42.632;23.298;2023-07-31T16:27:28;2.30;;;2.10;;
18136;SDS011;9194;42.632;23.298;2023-07-31T16:32:29;4.03;;;2.08;;
18136;SDS011;9194;42.632;23.298;2023-07-31T16:37:30;2.15;;;1.95;;
18136;SDS011;9194;42.632;23.298;2023-07-31T16:42:31;1.77;;;1.63;;
18136;SDS011;9194;42.632;23.298;2023-07-31T16:47:33;2.05;;;1.92;;
18136;SDS011;9194;42.632;23.298;2023-07-31T16:52:34;1.80;;;1.70;;
18136;SDS011;9194;42.632;23.298;2023-07-31T16:57:35;3.13;;;2.00;;
18136;SDS011;9194;42.632;23.298;2023-07-31T17:02:36;6.07;;;1.88;;
18136;SDS011;9194;42.632;23.298;2023-07-31T17:07:38;2.20;;;1.88;;
18136;SDS011;9194;42.632;23.298;2023-07-31T17:12:39;1.88;;;1.73;;
18136;SDS011;9194;42.632;23.298;2023-07-31T17:17:40;1.95;;;1.85;;
18136;SDS011;9194;42.632;23.298;2023-07-31T17:22:41;2.30;;;1.85;;
18136;SDS011;9194;42.632;23.298;2023-07-31T17:27:45;1.80;;;1.70;;
18136;SDS011;9194;42.632;23.298;2023-07-31T17:32:46;2.00;;;1.90;;
18136;SDS011;9194;42.632;23.298;2023-07-31T17:37:47;1.67;;;1.58;;
18136;SDS011;9194;42.632;23.298;2023-07-31T17:42:48;1.60;;;1.50;;
18136;SDS011;9194;42.632;23.298;2023-07-31T17:47:50;2.05;;;1.90;;
18136;SDS011;9194;42.632;23.298;2023-07-31T17:52:52;1.95;;;1.85;;
18136;SDS011;9194;42.632;23.298;2023-07-31T17:57:53;2.05;;;1.92;;
18136;SDS011;9194;42.632;23.298;2023-07-31T18:02:54;1.85;;;1.75;;
18136;SDS011;9194;42.632;23.298;2023-07-31T18:07:55;1.85;;;1.75;;
18136;SDS011;9194;42.632;23.298;2023-07-31T18:12:59;2.00;;;1.90;;
18136;SDS011;9194;42.632;23.298;2023-07-31T18:18:01;2.90;;;2.00;;
18136;SDS011;9194;42.632;23.298;2023-07-31T18:23:02;1.92;;;1.83;;
18136;SDS011;9194;42.632;23.298;2023-07-31T18:28:03;11.73;;;2.38;;
18136;SDS011;9194;42.632;23.298;2023-07-31T18:33:04;2.60;;;2.42;;
18136;SDS011;9194;42.632;23.298;2023-07-31T18:38:05;5.75;;;2.45;;
18136;SDS011;9194;42.632;23.298;2023-07-31T18:43:10;3.88;;;1.98;;
18136;SDS011;9194;42.632;23.298;2023-07-31T18:48:11;2.25;;;2.15;;
18136;SDS011;9194;42.632;23.298;2023-07-31T18:53:12;3.47;;;2.40;;
18136;SDS011;9194;42.632;23.298;2023-07-31T18:58:14;5.20;;;2.28;;
18136;SDS011;9194;42.632;23.298;2023-07-31T19:03:15;2.75;;;2.00;;
18136;SDS011;9194;42.632;23.298;2023-07-31T19:08:16;3.47;;;1.98;;
18136;SDS011;9194;42.632;23.298;2023-07-31T19:13:18;2.20;;;2.10;;
18136;SDS011;9194;42.632;23.298;2023-07-31T19:18:19;2.50;;;2.22;;
18136;SDS011;9194;42.632;23.298;2023-07-31T19:23:20;2.22;;;2.13;;
18136;SDS011;9194;42.632;23.298;2023-07-31T19:28:22;2.10;;;1.92;;
18136;SDS011;9194;42.632;23.298;2023-07-31T19:33:23;2.20;;;1.90;;
18136;SDS011;9194;42.632;23.298;2023-07-31T19:38:25;2.05;;;1.90;;
18136;SDS011;9194;42.632;23.298;2023-07-31T19:43:26;1.98;;;1.80;;
18136;SDS011;9194;42.632;23.298;2023-07-31T19:48:27;3.45;;;2.13;;
18136;SDS011;9194;42.632;23.298;2023-07-31T19:53:28;1.85;;;1.75;;
18136;SDS011;9194;42.632;23.298;2023-07-31T19:58:30;1.85;;;1.73;;
18136;SDS011;9194;42.632;23.298;2023-07-31T20:03:31;4.72;;;2.00;;
18136;SDS011;9194;42.632;23.298;2023-07-31T20:08:33;1.73;;;1.63;;
18136;SDS011;9194;42.632;23.298;2023-07-31T20:13:34;1.48;;;1.40;;
18136;SDS011;9194;42.632;23.298;2023-07-31T20:18:35;3.30;;;1.67;;
18136;SDS011;9194;42.632;23.298;2023-07-31T20:23:39;2.17;;;2.05;;
18136;SDS011;9194;42.632;23.298;2023-07-31T20:28:41;2.33;;;2.03;;
18136;SDS011;9194;42.632;23.298;2023-07-31T20:33:43;3.60;;;1.88;;
18136;SDS011;9194;42.632;23.298;2023-07-31T20:38:44;1.83;;;1.50;;
18136;SDS011;9194;42.632;23.298;2023-07-31T20:43:45;2.13;;;1.80;;
18136;SDS011;9194;42.632;23.298;2023-07-31T20:48:46;1.73;;;1.65;;
18136;SDS011;9194;42.632;23.298;2023-07-31T20:53:47;1.70;;;1.60;;
18136;SDS011;9194;42.632;23.298;2023-07-31T20:58:52;2.22;;;2.00;;
18136;SDS011;9194;42.632;23.298;2023-07-31T21:03:53;2.20;;;1.90;;
18136;SDS011;9194;42.632;23.298;2023-07-31T21:08:54;2.45;;;1.85;;
18136;SDS011;9194;42.632;23.298;2023-07-31T21:13:55;2.88;;;1.85;;
18136;SDS011;9194;42.632;23.298;2023-07-31T21:18:58;2.00;;;1.90;;
18136;SDS011;9194;42.632;23.298;2023-07-31T21:23:59;1.92;;;1.83;;
18136;SDS011;9194;42.632;23.298;2023-07-31T21:29:00;2.30;;;2.10;;
18136;SDS011;9194;42.632;23.298;2023-07-31T21:34:02;3.55;;;1.95;;
18136;SDS011;9194;42.632;23.298;2023-07-31T21:39:03;2.15;;;1.70;;
18136;SDS011;9194;42.632;23.298;2023-07-31T21:44:04;1.70;;;1.60;;
18136;SDS011;9194;42.632;23.298;2023-07-31T21:49:06;1.75;;;1.67;;
18136;SDS011;9194;42.632;23.298;2023-07-31T21:54:07;2.60;;;1.75;;
18136;SDS011;9194;42.632;23.298;2023-07-31T21:59:12;3.03;;;2.08;;
18136;SDS011;9194;42.632;23.298;2023-07-31T22:04:13;4.45;;;1.70;;
18136;SDS011;9194;42.632;23.298;2023-07-31T22:09:17;2.83;;;1.95;;
18136;SDS011;9194;42.632;23.298;2023-07-31T22:14:18;2.10;;;1.98;;
18136;SDS011;9194;42.632;23.298;2023-07-31T22:19:19;2.38;;;2.13;;
18136;SDS011;9194;42.632;23.298;2023-07-31T22:24:21;3.00;;;1.70;;
18136;SDS011;9194;42.632;23.298;2023-07-31T22:29:22;1.90;;;1.80;;
18136;SDS011;9194;42.632;23.298;2023-07-31T22:34:24;4.43;;;1.73;;
18136;SDS011;9194;42.632;23.298;2023-07-31T22:39:25;1.80;;;1.70;;
18136;SDS011;9194;42.632;23.298;2023-07-31T22:44:26;2.42;;;2.10;;
18136;SDS011;9194;42.632;23.298;2023-07-31T22:49:27;3.60;;;2.20;;
18136;SDS011;9194;42.632;23.298;2023-07-31T22:54:31;2.00;;;1.90;;
18136;SDS011;9194;42.632;23.298;2023-07-31T22:59:32;1.75;;;1.63;;
18136;SDS011;9194;42.632;23.298;2023-07-31T23:04:34;2.28;;;2.08;;
18136;SDS011;9194;42.632;23.298;2023-07-31T23:09:38;2.10;;;1.88;;
18136;SDS011;9194;42.632;23.298;2023-07-31T23:14:39;2.75;;;1.80;;
18136;SDS011;9194;42.632;23.298;2023-07-31T23:19:44;2.08;;;1.90;;
18136;SDS011;9194;42.632;23.298;2023-07-31T23:24:45;1.73;;;1.63;;
18136;SDS011;9194;42.632;23.298;2023-07-31T23:29:46;6.55;;;2.30;;
18136;SDS011;9194;42.632;23.298;2023-07-31T23:34:47;2.13;;;2.03;;
18136;SDS011;9194;42.632;23.298;2023-07-31T23:39:48;1.80;;;1.70;;
18136;SDS011;9194;42.632;23.298;2023-07-31T23:44:49;3.53;;;2.38;;
18136;SDS011;9194;42.632;23.298;2023-07-31T23:49:51;4.13;;;2.28;;
18136;SDS011;9194;42.632;23.298;2023-07-31T23:54:52;2.85;;;2.45;;
18136;SDS011;9194;42.632;23.298;2023-07-31T23:59:54;3.22;;;2.55;;
